Domov               UVHVVR             MKGP            O straneh              
ZDRAVSTVENO VARSTVO RASTLIN
  MREŽA AGROMET. POSTAJ
 ► PROGNOSTIČNA OBVESTILA
AGROMETEOROLOŠKI PODATKI -
ARSO
OBVLADOVANJE TVEGANJ ZARADI
NEUGODNIH VREMENSKIH RAZMER
  ► NARAVNE NESREČE
  ► SUŠA/MOČA
  ► NAMAKANJE
  ► ŽLED (gozdarstvo)
KARTOGRAFSKI PRIKAZI
SPLETNE POVEZAVE
PROJEKTI IN PUBLIKACIJE

AGROMETEOROLOŠKA MREŽA: VREMENSKE POSTAJE IN FENOLOŠKA OPAZOVANJA

Pregled podatkov za lokacijo Gabernik-Rogaška, meteorološka postaja 37800

Pregled senzorjev na lokaciji

ID Ime Zadnja
vrednost
Datum in čas
zadnje
spremembe
(Lokalni čas)
Tip
senzorja
1828 Omočenost lista (U) 0 U 6.7.2020 02:00 A730WET
4946 Padavine (mm) 0 mm 6.7.2020 02:00 Generic 0.2 mm
1827 Relativna vlaga 2 m (% RH) 71.23 % RH 6.7.2020 02:00 50YA
1826 Temperatura 2 m (°C) 19.88 °C 6.7.2020 02:00 50YA

Pregled podatkov zadnjih 24 ur

Zap.
št.
Datum in čas
(Centralno
evropski čas)
Gabernik-Rogaška
Omočenost
lista
Padavine Relativna
vlaga
2
m
Temperatura
2
m
1 6.7.2020 02:30
2 6.7.2020 02:00
3 6.7.2020 01:30
4 6.7.2020 01:00 0 0 71.2 19.9
5 6.7.2020 00:30 0 0 70.5 20
6 6.7.2020 00:00 0 0 70.2 20
7 5.7.2020 23:30 0 0 64.9 20.9
8 5.7.2020 23:00 0 0 61.1 21.7
9 5.7.2020 22:30 0 0 60.5 22
10 5.7.2020 22:00 0 0 61.7 21.6
11 5.7.2020 21:30 0 0 57.8 22.5
12 5.7.2020 21:00 0 0 56.6 22.9
13 5.7.2020 20:30 0 0 57.5 23
14 5.7.2020 20:00 0 0 58.3 23.4
15 5.7.2020 19:30 0 0 58.2 24.6
16 5.7.2020 19:00 0 0 53 27.3
17 5.7.2020 18:30 0 0 50.8 28.2
18 5.7.2020 18:00 0 0 49.3 28.9
19 5.7.2020 17:30 0 0 49 29.3
20 5.7.2020 17:00 0 0 47.5 29.5
21 5.7.2020 16:30 0 0 47.7 29.5
22 5.7.2020 16:00 0 0 48 29.2
23 5.7.2020 15:30 0 0 49.3 28.4
24 5.7.2020 15:00 0 0 51.6 28.1
25 5.7.2020 14:30 0 0 49.4 28.7
26 5.7.2020 14:00 0 0 48.4 29
27 5.7.2020 13:30 0 0 51.3 28.5
28 5.7.2020 13:00 0 0 47.6 28.1
29 5.7.2020 12:30 0 0 48.2 27.8
30 5.7.2020 12:00 0 0 50.5 27
31 5.7.2020 11:30 0 0 53.6 26.3
32 5.7.2020 11:00 0 0 55.2 25.1
33 5.7.2020 10:30 0 0 58.4 22.8
34 5.7.2020 10:00 0 0 62.5 21.8
35 5.7.2020 09:30 0 0 68.7 20.6
36 5.7.2020 09:00 0 0 70.8 19.4
37 5.7.2020 08:30 0 0 75.2 18.2
38 5.7.2020 08:00 0 0 79.6 17.4
39 5.7.2020 07:30 0 0 84.6 16.4
40 5.7.2020 07:00 0 0 83.5 15.3
41 5.7.2020 06:30 0 0 84.5 14.7
42 5.7.2020 06:00 1 0 87.5 14.1
43 5.7.2020 05:30 1 0 88.2 13.9
44 5.7.2020 05:00 1 0 87.2 14
45 5.7.2020 04:30 2 0 87.4 14
46 5.7.2020 04:00 1 0 86.9 14
47 5.7.2020 03:30 0 0 85.6 14.4
48 5.7.2020 03:00 0 0 82.2 15.1
© 2011 Ministrstvo za kmetijstvo, gozdarstvo in prehrano. Vse pravice pridržane.